createdAt,value
2018-12-24T00:01:23.185Z,14.30
2018-12-24T00:05:35.992Z,13.00
2018-12-24T00:09:49.041Z,16.27
2018-12-24T00:14:02.220Z,18.10
2018-12-24T00:18:14.997Z,22.57
2018-12-24T00:22:28.236Z,26.63
2018-12-24T00:26:41.061Z,21.30
2018-12-24T00:30:54.116Z,16.87
2018-12-24T00:35:07.169Z,16.87
2018-12-24T00:39:19.940Z,21.33
2018-12-24T00:43:33.068Z,19.43
2018-12-24T00:47:45.892Z,18.43
2018-12-24T00:51:59.160Z,25.97
2018-12-24T00:56:12.427Z,22.13
2018-12-24T01:00:26.328Z,24.10
2018-12-24T01:04:39.456Z,20.33
2018-12-24T01:08:52.269Z,18.23
2018-12-24T01:13:05.443Z,24.43
2018-12-24T01:17:18.697Z,22.80
2018-12-24T01:21:31.473Z,20.53
2018-12-24T01:25:44.668Z,21.60
2018-12-24T01:29:57.988Z,26.43
2018-12-24T01:34:10.747Z,25.90
2018-12-24T01:38:23.892Z,24.20
2018-12-24T01:42:37.171Z,17.60
2018-12-24T01:46:49.945Z,17.17
2018-12-24T01:51:03.318Z,23.03
2018-12-24T01:55:16.119Z,16.63
2018-12-24T01:59:29.204Z,21.73
2018-12-24T02:03:42.989Z,20.37
2018-12-24T02:07:56.120Z,21.80
2018-12-24T02:12:09.409Z,20.83
2018-12-24T02:16:22.201Z,18.90
2018-12-24T02:20:35.268Z,23.83
2018-12-24T02:24:48.032Z,22.53
2018-12-24T02:29:01.279Z,22.70
2018-12-24T02:33:14.365Z,25.43
2018-12-24T02:37:27.112Z,21.87
2018-12-24T02:41:40.213Z,20.87
2018-12-24T02:45:52.979Z,22.30
2018-12-24T02:50:06.250Z,19.67
2018-12-24T02:54:19.399Z,20.67
2018-12-24T02:58:32.071Z,22.57
2018-12-24T03:02:45.278Z,21.63
2018-12-24T03:06:58.034Z,19.23
2018-12-24T03:11:11.162Z,22.93
2018-12-24T03:15:24.343Z,16.73
2018-12-24T03:19:37.104Z,23.47
2018-12-24T03:23:50.151Z,22.30
2018-12-24T03:28:03.001Z,23.60
2018-12-24T03:32:16.454Z,20.70
2018-12-24T03:36:29.551Z,22.50
2018-12-24T03:40:43.398Z,17.87
2018-12-24T03:44:56.519Z,24.27
2018-12-24T03:49:09.349Z,20.03
2018-12-24T03:53:22.505Z,19.90
2018-12-24T03:57:35.780Z,22.97
2018-12-24T04:01:49.874Z,20.30
2018-12-24T04:06:03.130Z,21.07
2018-12-24T04:10:15.932Z,21.97
2018-12-24T04:14:29.137Z,20.43
2018-12-24T04:18:41.905Z,23.37
2018-12-24T04:22:54.928Z,19.40
2018-12-24T04:27:08.121Z,27.90
2018-12-24T04:31:20.974Z,23.07
2018-12-24T04:35:34.089Z,22.43
2018-12-24T04:39:47.306Z,17.73
2018-12-24T04:44:00.078Z,16.13
2018-12-24T04:48:13.212Z,21.30
2018-12-24T04:52:26.257Z,16.60
2018-12-24T04:56:39.262Z,23.87
2018-12-24T05:00:52.455Z,19.37
2018-12-24T05:05:05.229Z,20.90
2018-12-24T05:09:18.944Z,21.27
2018-12-24T05:13:40.667Z,18.47
2018-12-24T05:17:46.349Z,19.20
2018-12-24T05:21:59.385Z,18.43
2018-12-24T05:26:12.577Z,19.50
2018-12-24T05:30:26.675Z,19.50
2018-12-24T05:34:41.837Z,23.73
2018-12-24T05:38:55.305Z,20.27
2018-12-24T05:43:10.480Z,19.23
2018-12-24T05:47:23.191Z,23.40
2018-12-24T05:51:36.321Z,15.50
2018-12-24T05:55:49.650Z,23.03
2018-12-24T06:00:02.591Z,20.77
2018-12-24T06:04:15.665Z,19.90
2018-12-24T06:08:28.812Z,23.00
2018-12-24T06:12:41.640Z,15.23
2018-12-24T06:16:54.664Z,18.57
2018-12-24T06:21:08.663Z,18.30
2018-12-24T06:25:21.754Z,20.80
2018-12-24T06:29:35.848Z,20.17
2018-12-24T06:33:49.039Z,20.20
2018-12-24T06:38:01.803Z,16.63
2018-12-24T06:42:15.012Z,19.67
2018-12-24T06:46:27.763Z,17.43
2018-12-24T06:50:42.445Z,19.80
2018-12-24T06:54:55.289Z,17.63
2018-12-24T06:59:08.286Z,17.33
2018-12-24T07:03:21.432Z,21.20
2018-12-24T07:07:34.145Z,24.00
2018-12-24T07:11:47.276Z,24.10
2018-12-24T07:16:00.220Z,31.40
2018-12-24T07:20:13.244Z,23.83
2018-12-24T07:24:26.425Z,21.53
2018-12-24T07:28:39.195Z,24.60
2018-12-24T07:32:52.215Z,23.93
2018-12-24T07:37:04.932Z,22.10
2018-12-24T07:41:17.985Z,19.33
2018-12-24T07:45:31.128Z,15.57
2018-12-24T07:49:45.168Z,12.07
2018-12-24T07:53:58.137Z,12.13
2018-12-24T07:58:11.111Z,20.03
2018-12-24T08:02:24.357Z,19.23
2018-12-24T08:06:37.088Z,17.10
2018-12-24T08:10:50.112Z,15.83
2018-12-24T08:15:03.402Z,53.50
2018-12-24T08:19:17.241Z,7.93
2018-12-24T08:23:30.008Z,11.10
2018-12-24T08:27:43.043Z,9.17
2018-12-24T08:31:55.964Z,9.07
2018-12-24T08:36:09.101Z,9.73
2018-12-24T08:40:22.293Z,9.57
2018-12-24T08:44:41.755Z,9.33
2018-12-24T08:48:49.897Z,7.83
2018-12-24T08:53:02.851Z,13.33
2018-12-24T08:57:16.012Z,10.47
2018-12-24T09:01:29.233Z,15.17
2018-12-24T09:05:42.043Z,14.00
2018-12-24T09:09:55.095Z,12.00
2018-12-24T09:14:08.740Z,11.83
2018-12-24T09:18:21.532Z,11.87
2018-12-24T09:22:34.475Z,10.20
2018-12-24T09:26:47.577Z,11.63
2018-12-24T09:31:01.657Z,10.83
2018-12-24T09:35:14.501Z,14.97
2018-12-24T09:39:27.533Z,14.77
2018-12-24T09:43:40.704Z,15.77
2018-12-24T09:47:53.376Z,12.73
2018-12-24T09:52:06.682Z,13.73
2018-12-24T09:56:19.601Z,14.93
2018-12-24T10:00:32.738Z,15.87
2018-12-24T10:04:54.477Z,17.80
2018-12-24T10:09:12.109Z,18.60
2018-12-24T10:13:25.290Z,17.90
2018-12-24T10:17:38.100Z,21.17
2018-12-24T10:21:51.312Z,15.60
2018-12-24T10:26:04.592Z,15.23
2018-12-24T10:30:18.517Z,12.60
2018-12-24T10:34:31.608Z,12.70
2018-12-24T10:38:44.380Z,15.77
2018-12-24T10:42:57.516Z,20.83
2018-12-24T10:47:10.241Z,17.53
2018-12-24T10:51:23.432Z,17.77
2018-12-24T10:55:36.854Z,21.33
2018-12-24T10:59:49.623Z,17.00
2018-12-24T11:04:02.656Z,23.73
2018-12-24T11:08:15.843Z,24.50
2018-12-24T11:12:29.848Z,22.37
2018-12-24T11:16:42.577Z,18.73
2018-12-24T11:20:55.789Z,16.90
2018-12-24T11:25:09.002Z,18.93
2018-12-24T11:29:22.333Z,16.37
2018-12-24T11:33:36.453Z,20.77
2018-12-24T11:37:49.617Z,23.07
2018-12-24T11:42:02.389Z,20.83
2018-12-24T11:46:15.524Z,15.33
2018-12-24T11:50:29.471Z,18.90
2018-12-24T11:54:42.773Z,19.77
2018-12-24T11:58:55.689Z,20.73
2018-12-24T12:03:08.776Z,17.90
2018-12-24T12:07:21.944Z,19.17
2018-12-24T12:11:34.627Z,20.37
2018-12-24T12:15:47.752Z,20.80
2018-12-24T12:20:02.161Z,21.97
2018-12-24T12:24:15.224Z,17.67
2018-12-24T12:28:28.325Z,19.23
2018-12-24T12:32:41.029Z,21.37
2018-12-24T12:36:54.136Z,13.43
2018-12-24T12:41:07.425Z,11.97
2018-12-24T12:46:15.356Z,19.20
2018-12-24T12:50:29.041Z,16.17
2018-12-24T12:54:41.508Z,14.47
2018-12-24T12:58:54.305Z,16.87
2018-12-24T13:03:06.765Z,15.93
2018-12-24T13:07:19.167Z,15.60
2018-12-24T13:11:32.066Z,14.43
2018-12-24T13:15:44.536Z,15.90
2018-12-24T13:19:57.405Z,11.33
2018-12-24T13:24:09.860Z,15.67
2018-12-24T13:28:22.361Z,17.47
2018-12-24T13:32:35.819Z,13.53
2018-12-24T13:36:48.129Z,13.53
2018-12-24T13:41:01.126Z,11.90
2018-12-24T13:45:15.344Z,16.77
2018-12-24T13:49:29.121Z,17.07
2018-12-24T13:53:42.256Z,15.77
2018-12-24T13:57:54.680Z,13.73
2018-12-24T14:02:07.396Z,10.67
2018-12-24T14:06:19.858Z,13.93
2018-12-24T14:10:32.265Z,13.50
2018-12-24T14:14:45.161Z,12.67
2018-12-24T14:18:57.668Z,14.93
2018-12-24T14:23:11.647Z,13.80
2018-12-24T14:27:24.517Z,12.10
2018-12-24T14:31:37.183Z,11.43
2018-12-24T14:35:49.996Z,12.27
2018-12-24T14:40:02.457Z,12.73
2018-12-24T14:44:14.856Z,11.60
2018-12-24T14:48:27.721Z,13.93
2018-12-24T14:52:40.212Z,11.93
2018-12-24T14:56:52.621Z,17.17
2018-12-24T15:01:05.483Z,13.97
2018-12-24T15:05:18.324Z,16.13
2018-12-24T15:09:31.061Z,16.30
2018-12-24T15:13:44.390Z,14.63
2018-12-24T15:17:57.421Z,11.73
2018-12-24T15:22:10.256Z,16.73
2018-12-24T15:26:22.708Z,14.37
2018-12-24T15:30:35.089Z,11.13
2018-12-24T15:34:48.360Z,17.47
2018-12-24T15:39:00.818Z,14.03
2018-12-24T15:43:13.564Z,19.90
2018-12-24T15:47:26.117Z,13.13
2018-12-24T15:51:38.598Z,15.03
2018-12-24T15:55:52.548Z,15.10
2018-12-24T16:00:05.314Z,11.57
2018-12-24T16:04:20.062Z,15.73
2018-12-24T16:08:33.617Z,17.13
2018-12-24T16:12:46.040Z,12.47
2018-12-24T16:16:58.380Z,17.57
2018-12-24T16:21:11.140Z,21.60
2018-12-24T16:25:23.600Z,19.80
2018-12-24T16:29:37.145Z,17.87
2018-12-24T16:33:49.635Z,18.30
2018-12-24T16:38:02.444Z,17.17
2018-12-24T16:42:16.129Z,12.00
2018-12-24T16:46:28.756Z,13.37
2018-12-24T16:50:41.692Z,20.77
2018-12-24T16:54:54.196Z,15.57
2018-12-24T16:59:07.010Z,20.47
2018-12-24T17:03:19.788Z,16.83
2018-12-24T17:07:32.223Z,18.97
2018-12-24T17:11:45.063Z,17.33
2018-12-24T17:15:57.603Z,22.03
2018-12-24T17:20:11.166Z,20.40
2018-12-24T17:24:23.579Z,21.47
2018-12-24T17:28:36.436Z,20.63
2018-12-24T17:32:48.919Z,23.67
2018-12-24T17:37:01.388Z,14.60
2018-12-24T17:41:14.649Z,18.53
2018-12-24T17:45:27.160Z,20.27
2018-12-24T17:49:40.014Z,15.57
2018-12-24T17:53:52.633Z,15.63
2018-12-24T17:58:07.742Z,17.70
2018-12-24T18:02:23.048Z,16.43
2018-12-24T18:06:38.986Z,17.10
2018-12-24T18:10:54.543Z,20.20
2018-12-24T18:15:10.233Z,18.63
2018-12-24T18:19:27.532Z,25.93
2018-12-24T18:23:42.332Z,17.47
2018-12-24T18:27:57.548Z,20.57
2018-12-24T18:32:12.958Z,18.90
2018-12-24T18:36:27.951Z,21.80
2018-12-24T18:40:43.290Z,19.93
2018-12-24T18:44:57.503Z,24.13
2018-12-24T18:49:12.286Z,25.77
2018-12-24T18:53:27.530Z,22.67
2018-12-24T18:57:42.415Z,20.70
2018-12-24T19:01:54.982Z,26.27
2018-12-24T19:06:07.877Z,21.83
2018-12-24T19:10:20.512Z,21.20
2018-12-24T19:14:32.940Z,21.80
2018-12-24T19:18:45.729Z,21.57
2018-12-24T19:22:58.204Z,20.47
2018-12-24T19:27:10.494Z,21.80
2018-12-24T19:31:23.509Z,26.50
2018-12-24T19:35:36.155Z,24.73
2018-12-24T19:39:49.037Z,22.33
2018-12-24T19:44:02.209Z,26.27
2018-12-24T19:48:14.985Z,24.60
2018-12-24T19:52:28.164Z,28.83
2018-12-24T19:56:40.680Z,23.27
2018-12-24T20:00:53.196Z,28.43
2018-12-24T20:05:05.989Z,26.07
2018-12-24T20:09:18.490Z,25.50
2018-12-24T20:13:32.261Z,25.93
2018-12-24T20:17:45.080Z,24.37
2018-12-24T20:21:57.636Z,22.47
2018-12-24T20:26:09.945Z,26.80
2018-12-24T20:30:22.932Z,25.73
2018-12-24T20:34:35.401Z,24.57
2018-12-24T20:38:47.811Z,22.97
2018-12-24T20:43:02.296Z,22.17
2018-12-24T20:47:16.139Z,22.53
2018-12-24T20:51:29.661Z,23.57
2018-12-24T20:55:42.068Z,21.77
2018-12-24T20:59:55.719Z,24.33
2018-12-24T21:04:08.462Z,23.57
2018-12-24T21:08:21.177Z,24.37
2018-12-24T21:12:33.584Z,26.10
2018-12-24T21:16:45.953Z,25.90
2018-12-24T21:20:58.696Z,30.13
2018-12-24T21:25:11.241Z,26.30
2018-12-24T21:29:23.643Z,29.17
2018-12-24T21:33:36.604Z,27.90
2018-12-24T21:37:49.208Z,25.50
2018-12-24T21:42:02.193Z,28.20
2018-12-24T21:46:14.755Z,21.40
2018-12-24T21:50:27.334Z,32.37
2018-12-24T21:54:41.549Z,34.13
2018-12-24T21:58:55.581Z,45.60
2018-12-24T22:03:08.463Z,32.97
2018-12-24T22:07:21.124Z,44.27
2018-12-24T22:11:33.535Z,40.03
2018-12-24T22:15:45.852Z,41.60
2018-12-24T22:19:58.742Z,44.27
2018-12-24T22:24:11.093Z,34.43
2018-12-24T22:28:23.892Z,43.23
2018-12-24T22:32:36.547Z,35.00
2018-12-24T22:36:48.876Z,39.20
2018-12-24T22:41:01.736Z,39.70
2018-12-24T22:45:14.201Z,37.00
2018-12-24T22:49:26.705Z,34.27
2018-12-24T22:53:39.561Z,34.37
2018-12-24T22:57:52.071Z,29.57
2018-12-24T23:02:05.200Z,33.13
2018-12-24T23:06:17.843Z,30.30
2018-12-24T23:10:30.787Z,26.70
2018-12-24T23:14:43.306Z,26.20
2018-12-24T23:18:56.245Z,25.30
2018-12-24T23:23:09.016Z,25.63
2018-12-24T23:27:21.422Z,29.17
2018-12-24T23:31:34.860Z,25.70
2018-12-24T23:35:47.856Z,26.77
2018-12-24T23:40:00.416Z,22.80
2018-12-24T23:44:12.726Z,26.47
2018-12-24T23:48:25.712Z,24.13
2018-12-24T23:52:38.328Z,28.20
2018-12-24T23:56:51.225Z,25.83
